PAYA/YAK METAR and TAF weather

Enter ICAO airport designator
Station Type Date Time Source
PAYA METAR 2020/07/04 02:53 UTC NOAA

PAYA 040253Z AUTO 14006KT 10SM CLR 15/12 A2999 RMK AO2 SLP154 T01500117 51001 TSNO $


Station Type Date Time Source
PAYA Decoded METAR 2020/07/04 02:53 UTC NOAA

YAKUTAT AIRPORT, AK, United States (PAYA) 59-30N 139-40W 9M
Jul 03, 2020 - 10:53 PM EDT / 2020.07.04 0253 UTC
Wind: from the SE (140 degrees) at 7 MPH (6 KT):0
Visibility: 10 mile(s):0
Sky conditions: clear
Temperature: 59.0 F (15.0 C)
Dew Point: 53.1 F (11.7 C)
Relative Humidity: 80%
Pressure (altimeter): 29.99 in. Hg (1015 hPa)
Pressure tendency: 0.00 inches (0.1 hPa) higher than three hours ago
ob: PAYA 040253Z AUTO 14006KT 10SM CLR 15/12 A2999 RMK AO2 SLP154 T01500117 51001 TSNO
cycle: 3

Station Type Date Time Source
PAYA TAF 2020/07/04 02:16 UTC NOAA

TAF
AMD PAYA 040214Z 0402/0424 14009KT P6SM SCT009
FM041900 11004KT P6SM BKN015
AMD LTD TO CLD VIS AND WIND

Example: see airport list